Kendall, MI (49062)

1:15 PM EDT on October 31, 2014 (GMT -0400)
Gobles | Change Station
CLOSE
Current Station
Personal Weather Station
Location: Gobles, MI
Elevation: 860 ft
Nearby Weather Stations
Active Advisory: Wind Advisory Active Notice: Public Information Statement

Elev 860 ft 42.40 °N, 85.82 °W | Updated 6 minutes ago

Overcast
Overcast
36.3 °F
Feels Like 32 °F
N
5.8
Wind Variable Wind from NW

Today
High -- | Low -- °F
--% Chance of Precip.
Yesterday
High -- | Low -- °F
Precip. -- in
8:15 AM 6:37 PM
First Quarter, 57% visible
Pressure 29.96 in
Visibility 10.0 miles
Clouds Overcast 2100 ft
Windchill 32 °F
Dew Point 35 °F
Humidity 95%
Rainfall 0.25 in
Snow Depth Not available.
UV 1 out of 12
Pollen .10 out of 12
Air Quality Not available.
Flu Activity Not available.
METAR KAZO 311653Z 36011KT 10SM OVC021 05/02 A2995 RMK AO2 SLP146 T00500017

More Conditions Fewer Conditions

Pressure 29.96 in
Visibility 10.0 miles
Clouds Overcast 2100 ft
Windchill 32 °F
Dew Point 35 °F
Humidity 95%
Rainfall 0.25 in
Snow Depth Not available.
UV 1 out of 12
Pollen .10 out of 12
Air Quality Not available.
Flu Activity Not available.
METAR KAZO 311653Z 36011KT 10SM OVC021 05/02 A2995 RMK AO2 SLP146 T00500017

More Conditions Fewer Conditions

10-Day Weather Forecast

Almanac

Astronomy

Oct. 31, 2014 Rise Set
Actual Time
Civil Twilight
Nautical Twilight
Astronomical Twilight
Moon
Length of Visible Light
Length of Day
Tomorrow will be .
, % of the Moon is Illuminated

Today's Extremes

State Highs State Lows

Community

WunderPhotos

Upload Photos

1,766,668 photos uploaded!

WunderBlogs® & News

Nearby

Air Quality

  Air Quality AQ Index Pollutant
Not available.

Snow Depth

Station Depth Elevation

Earthquake Activity

City Distance Mag. Time & Date
Minimum magnitude displayed is 2.5.

Coastal Water Temperatures

Place Temperature

Nearby Weather Stations